sensor_id;sensor_type;location;lat;lon;timestamp;pressure;altitude;pressure_sealevel;temperature;humidity
10948;BME280;5526;42.070;24.752;2024-02-28T00:02:06;99449.53;;;8.78;100.00
10948;BME280;5526;42.070;24.752;2024-02-28T00:04:33;99455.22;;;8.75;100.00
10948;BME280;5526;42.070;24.752;2024-02-28T00:07:02;99461.63;;;8.67;100.00
10948;BME280;5526;42.070;24.752;2024-02-28T00:09:29;99461.28;;;8.64;100.00
10948;BME280;5526;42.070;24.752;2024-02-28T00:11:56;99462.00;;;8.59;100.00
10948;BME280;5526;42.070;24.752;2024-02-28T00:14:23;99466.78;;;8.51;100.00
10948;BME280;5526;42.070;24.752;2024-02-28T00:16:50;99473.06;;;8.50;100.00
10948;BME280;5526;42.070;24.752;2024-02-28T00:19:17;99474.97;;;8.54;100.00
10948;BME280;5526;42.070;24.752;2024-02-28T00:21:45;99473.75;;;8.57;100.00
10948;BME280;5526;42.070;24.752;2024-02-28T00:24:14;99470.50;;;8.66;100.00
10948;BME280;5526;42.070;24.752;2024-02-28T00:26:41;99476.13;;;8.70;100.00
10948;BME280;5526;42.070;24.752;2024-02-28T00:29:09;99477.38;;;8.67;100.00
10948;BME280;5526;42.070;24.752;2024-02-28T00:31:36;99481.03;;;8.55;100.00
10948;BME280;5526;42.070;24.752;2024-02-28T00:34:03;99479.31;;;8.60;100.00
10948;BME280;5526;42.070;24.752;2024-02-28T00:36:30;99483.31;;;8.63;100.00
10948;BME280;5526;42.070;24.752;2024-02-28T00:38:57;99482.75;;;8.61;100.00
10948;BME280;5526;42.070;24.752;2024-02-28T00:41:26;99486.50;;;8.53;100.00
10948;BME280;5526;42.070;24.752;2024-02-28T00:43:53;99485.94;;;8.51;100.00
10948;BME280;5526;42.070;24.752;2024-02-28T00:46:20;99483.75;;;8.48;100.00
10948;BME280;5526;42.070;24.752;2024-02-28T00:48:47;99489.91;;;8.42;100.00
10948;BME280;5526;42.070;24.752;2024-02-28T00:51:14;99489.78;;;8.37;100.00
10948;BME280;5526;42.070;24.752;2024-02-28T00:53:41;99494.22;;;8.37;100.00
10948;BME280;5526;42.070;24.752;2024-02-28T00:56:09;99491.28;;;8.33;100.00
10948;BME280;5526;42.070;24.752;2024-02-28T00:58:37;99489.78;;;8.37;100.00
10948;BME280;5526;42.070;24.752;2024-02-28T01:01:04;99490.47;;;8.21;100.00
10948;BME280;5526;42.070;24.752;2024-02-28T01:03:32;99491.47;;;8.20;100.00
10948;BME280;5526;42.070;24.752;2024-02-28T01:05:59;99495.91;;;8.20;100.00
10948;BME280;5526;42.070;24.752;2024-02-28T01:08:29;99488.69;;;8.15;100.00
10948;BME280;5526;42.070;24.752;2024-02-28T01:10:56;99496.72;;;8.20;100.00
10948;BME280;5526;42.070;24.752;2024-02-28T01:13:24;99491.91;;;8.17;100.00
10948;BME280;5526;42.070;24.752;2024-02-28T01:15:53;99496.66;;;8.09;100.00
10948;BME280;5526;42.070;24.752;2024-02-28T01:18:20;99489.00;;;7.96;100.00
10948;BME280;5526;42.070;24.752;2024-02-28T01:20:47;99490.28;;;8.05;100.00
10948;BME280;5526;42.070;24.752;2024-02-28T01:23:16;99483.78;;;7.96;100.00
10948;BME280;5526;42.070;24.752;2024-02-28T01:25:43;99491.03;;;7.94;100.00
10948;BME280;5526;42.070;24.752;2024-02-28T01:28:10;99490.16;;;8.00;100.00
10948;BME280;5526;42.070;24.752;2024-02-28T01:30:37;99482.75;;;7.97;100.00
10948;BME280;5526;42.070;24.752;2024-02-28T01:33:06;99479.34;;;8.08;100.00
10948;BME280;5526;42.070;24.752;2024-02-28T01:35:33;99486.78;;;8.11;100.00
10948;BME280;5526;42.070;24.752;2024-02-28T01:38:00;99483.78;;;7.96;100.00
10948;BME280;5526;42.070;24.752;2024-02-28T01:40:27;99497.69;;;7.96;100.00
10948;BME280;5526;42.070;24.752;2024-02-28T01:42:54;99494.47;;;7.94;100.00
10948;BME280;5526;42.070;24.752;2024-02-28T01:45:21;99462.41;;;7.69;100.00
10948;BME280;5526;42.070;24.752;2024-02-28T01:47:52;99490.69;;;7.90;100.00
10948;BME280;5526;42.070;24.752;2024-02-28T01:50:20;99493.66;;;7.82;100.00
10948;BME280;5526;42.070;24.752;2024-02-28T01:52:47;99496.59;;;7.74;100.00
10948;BME280;5526;42.070;24.752;2024-02-28T01:55:14;99498.66;;;7.84;100.00
10948;BME280;5526;42.070;24.752;2024-02-28T01:57:42;99502.00;;;7.91;100.00
10948;BME280;5526;42.070;24.752;2024-02-28T02:00:10;99495.50;;;7.93;100.00
10948;BME280;5526;42.070;24.752;2024-02-28T02:02:37;99495.50;;;7.93;100.00
10948;BME280;5526;42.070;24.752;2024-02-28T02:05:05;99495.50;;;7.93;100.00
10948;BME280;5526;42.070;24.752;2024-02-28T02:07:33;99497.44;;;7.98;100.00
10948;BME280;5526;42.070;24.752;2024-02-28T02:10:01;99508.38;;;7.95;100.00
10948;BME280;5526;42.070;24.752;2024-02-28T02:12:28;99507.13;;;7.97;100.00
10948;BME280;5526;42.070;24.752;2024-02-28T02:14:55;99513.31;;;8.03;100.00
10948;BME280;5526;42.070;24.752;2024-02-28T02:17:22;99507.78;;;7.93;100.00
10948;BME280;5526;42.070;24.752;2024-02-28T02:19:49;99508.47;;;7.88;100.00
10948;BME280;5526;42.070;24.752;2024-02-28T02:22:16;99519.03;;;7.82;100.00
10948;BME280;5526;42.070;24.752;2024-02-28T02:24:46;99515.63;;;7.81;100.00
10948;BME280;5526;42.070;24.752;2024-02-28T02:27:14;99517.00;;;7.84;100.00
10948;BME280;5526;42.070;24.752;2024-02-28T02:29:41;99523.63;;;7.86;100.00
10948;BME280;5526;42.070;24.752;2024-02-28T02:32:08;99525.38;;;7.92;100.00
10948;BME280;5526;42.070;24.752;2024-02-28T02:34:35;99540.06;;;7.93;100.00
10948;BME280;5526;42.070;24.752;2024-02-28T02:37:02;99534.13;;;7.98;100.00
10948;BME280;5526;42.070;24.752;2024-02-28T02:39:30;99539.75;;;8.01;100.00
10948;BME280;5526;42.070;24.752;2024-02-28T02:41:59;99541.34;;;8.02;100.00
10948;BME280;5526;42.070;24.752;2024-02-28T02:44:26;99545.63;;;7.97;100.00
10948;BME280;5526;42.070;24.752;2024-02-28T02:46:53;99545.13;;;7.88;100.00
10948;BME280;5526;42.070;24.752;2024-02-28T02:49:20;99555.78;;;7.93;100.00
10948;BME280;5526;42.070;24.752;2024-02-28T02:51:47;99556.34;;;7.95;100.00
10948;BME280;5526;42.070;24.752;2024-02-28T02:54:14;99552.00;;;7.89;100.00
10948;BME280;5526;42.070;24.752;2024-02-28T02:56:42;99552.78;;;7.90;100.00
10948;BME280;5526;42.070;24.752;2024-02-28T02:59:11;99557.09;;;7.84;100.00
10948;BME280;5526;42.070;24.752;2024-02-28T03:01:38;99559.50;;;7.86;100.00
10948;BME280;5526;42.070;24.752;2024-02-28T03:04:05;99556.41;;;7.77;100.00
10948;BME280;5526;42.070;24.752;2024-02-28T03:06:32;99556.41;;;7.77;100.00
10948;BME280;5526;42.070;24.752;2024-02-28T03:08:59;99552.97;;;7.77;100.00
10948;BME280;5526;42.070;24.752;2024-02-28T03:11:26;99554.34;;;7.79;100.00
10948;BME280;5526;42.070;24.752;2024-02-28T03:13:53;99557.47;;;7.88;100.00
10948;BME280;5526;42.070;24.752;2024-02-28T03:16:22;99554.47;;;7.84;100.00
10948;BME280;5526;42.070;24.752;2024-02-28T03:18:49;99555.94;;;7.80;100.00
10948;BME280;5526;42.070;24.752;2024-02-28T03:21:16;99552.88;;;7.83;100.00
10948;BME280;5526;42.070;24.752;2024-02-28T03:23:43;99559.03;;;7.77;100.00
10948;BME280;5526;42.070;24.752;2024-02-28T03:26:10;99552.97;;;7.77;100.00
10948;BME280;5526;42.070;24.752;2024-02-28T03:28:37;99557.50;;;7.70;100.00
10948;BME280;5526;42.070;24.752;2024-02-28T03:31:04;99554.53;;;7.66;100.00
10948;BME280;5526;42.070;24.752;2024-02-28T03:33:33;99549.16;;;7.61;100.00
10948;BME280;5526;42.070;24.752;2024-02-28T03:36:01;99564.69;;;7.56;100.00
10948;BME280;5526;42.070;24.752;2024-02-28T03:38:28;99558.81;;;7.61;100.00
10948;BME280;5526;42.070;24.752;2024-02-28T03:40:55;99549.59;;;7.58;100.00
10948;BME280;5526;42.070;24.752;2024-02-28T03:43:22;99550.03;;;7.55;100.00
10948;BME280;5526;42.070;24.752;2024-02-28T03:45:49;99554.22;;;7.56;100.00
10948;BME280;5526;42.070;24.752;2024-02-28T03:48:16;99551.03;;;7.54;100.00
10948;BME280;5526;42.070;24.752;2024-02-28T03:50:44;99546.38;;;7.56;100.00
10948;BME280;5526;42.070;24.752;2024-02-28T03:53:11;99547.19;;;7.57;100.00
10948;BME280;5526;42.070;24.752;2024-02-28T03:55:39;99550.63;;;7.57;100.00
10948;BME280;5526;42.070;24.752;2024-02-28T03:58:06;99555.69;;;7.52;100.00
10948;BME280;5526;42.070;24.752;2024-02-28T04:00:34;99555.25;;;7.55;100.00
10948;BME280;5526;42.070;24.752;2024-02-28T04:03:01;99557.88;;;7.55;100.00
10948;BME280;5526;42.070;24.752;2024-02-28T04:05:28;99561.75;;;7.53;100.00
10948;BME280;5526;42.070;24.752;2024-02-28T04:07:57;99567.63;;;7.48;100.00
10948;BME280;5526;42.070;24.752;2024-02-28T04:10:24;99570.91;;;7.44;100.00
10948;BME280;5526;42.070;24.752;2024-02-28T04:12:51;99567.91;;;7.40;100.00
10948;BME280;5526;42.070;24.752;2024-02-28T04:15:18;99571.13;;;7.42;100.00
10948;BME280;5526;42.070;24.752;2024-02-28T04:17:45;99572.38;;;7.40;100.00
10948;BME280;5526;42.070;24.752;2024-02-28T04:20:13;99567.69;;;7.24;100.00
10948;BME280;5526;42.070;24.752;2024-02-28T04:22:40;99577.72;;;7.27;100.00
10948;BME280;5526;42.070;24.752;2024-02-28T04:25:09;99578.91;;;7.31;100.00
10948;BME280;5526;42.070;24.752;2024-02-28T04:27:37;99580.72;;;7.30;100.00
10948;BME280;5526;42.070;24.752;2024-02-28T04:30:05;99576.13;;;7.26;100.00
10948;BME280;5526;42.070;24.752;2024-02-28T04:32:32;99571.53;;;7.21;100.00
10948;BME280;5526;42.070;24.752;2024-02-28T04:35:01;99574.16;;;7.21;100.00
10948;BME280;5526;42.070;24.752;2024-02-28T04:37:28;99583.47;;;7.17;100.00
10948;BME280;5526;42.070;24.752;2024-02-28T04:39:55;99589.38;;;7.13;100.00
10948;BME280;5526;42.070;24.752;2024-02-28T04:42:23;99578.31;;;6.93;100.00
10948;BME280;5526;42.070;24.752;2024-02-28T04:44:50;99586.16;;;6.93;100.00
10948;BME280;5526;42.070;24.752;2024-02-28T04:47:17;99582.38;;;6.89;100.00
10948;BME280;5526;42.070;24.752;2024-02-28T04:49:44;99591.00;;;6.89;100.00
10948;BME280;5526;42.070;24.752;2024-02-28T04:52:11;99587.25;;;6.79;100.00
10948;BME280;5526;42.070;24.752;2024-02-28T04:54:40;99586.78;;;6.64;100.00
10948;BME280;5526;42.070;24.752;2024-02-28T04:57:07;99586.78;;;6.64;100.00
10948;BME280;5526;42.070;24.752;2024-02-28T04:59:35;99580.66;;;6.76;100.00
10948;BME280;5526;42.070;24.752;2024-02-28T05:02:02;99572.53;;;6.84;100.00
10948;BME280;5526;42.070;24.752;2024-02-28T05:04:30;99577.63;;;6.97;100.00
10948;BME280;5526;42.070;24.752;2024-02-28T05:06:57;99583.19;;;7.07;100.00
10948;BME280;5526;42.070;24.752;2024-02-28T05:09:24;99588.00;;;7.10;100.00
10948;BME280;5526;42.070;24.752;2024-02-28T05:11:51;99583.19;;;7.07;100.00
10948;BME280;5526;42.070;24.752;2024-02-28T05:14:18;99587.53;;;7.13;100.00
10948;BME280;5526;42.070;24.752;2024-02-28T05:16:48;99585.88;;;7.19;100.00
10948;BME280;5526;42.070;24.752;2024-02-28T05:19:15;99586.31;;;7.16;100.00
10948;BME280;5526;42.070;24.752;2024-02-28T05:21:43;99603.03;;;7.15;100.00
10948;BME280;5526;42.070;24.752;2024-02-28T05:24:10;99606.66;;;7.14;100.00
10948;BME280;5526;42.070;24.752;2024-02-28T05:26:38;99603.13;;;7.26;100.00
10948;BME280;5526;42.070;24.752;2024-02-28T05:29:05;99604.00;;;7.38;100.00
10948;BME280;5526;42.070;24.752;2024-02-28T05:31:33;99608.00;;;7.41;100.00
10948;BME280;5526;42.070;24.752;2024-02-28T05:34:03;99606.91;;;7.48;100.00
10948;BME280;5526;42.070;24.752;2024-02-28T05:36:30;99610.25;;;7.55;100.00
10948;BME280;5526;42.070;24.752;2024-02-28T05:38:59;99618.03;;;7.62;100.00
10948;BME280;5526;42.070;24.752;2024-02-28T05:41:27;99617.38;;;7.66;100.00
10948;BME280;5526;42.070;24.752;2024-02-28T05:43:54;99624.34;;;7.72;100.00
10948;BME280;5526;42.070;24.752;2024-02-28T05:46:21;99622.03;;;7.64;100.00
10948;BME280;5526;42.070;24.752;2024-02-28T05:48:49;99633.75;;;7.62;100.00
10948;BME280;5526;42.070;24.752;2024-02-28T05:51:18;99623.56;;;7.54;100.00
10948;BME280;5526;42.070;24.752;2024-02-28T05:53:45;99623.56;;;7.54;100.00
10948;BME280;5526;42.070;24.752;2024-02-28T05:56:12;99629.03;;;7.52;100.00
10948;BME280;5526;42.070;24.752;2024-02-28T05:58:40;99643.34;;;7.50;100.00
10948;BME280;5526;42.070;24.752;2024-02-28T06:01:09;99634.63;;;7.56;100.00
10948;BME280;5526;42.070;24.752;2024-02-28T06:03:36;99643.75;;;7.53;100.00
10948;BME280;5526;42.070;24.752;2024-02-28T06:06:04;99642.56;;;7.67;100.00
10948;BME280;5526;42.070;24.752;2024-02-28T06:08:34;99640.38;;;7.82;100.00
10948;BME280;5526;42.070;24.752;2024-02-28T06:11:01;99647.63;;;7.98;100.00
10948;BME280;5526;42.070;24.752;2024-02-28T06:13:28;99652.38;;;8.19;100.00
10948;BME280;5526;42.070;24.752;2024-02-28T06:15:55;99635.22;;;8.23;100.00
10948;BME280;5526;42.070;24.752;2024-02-28T06:18:22;99648.53;;;8.40;100.00
10948;BME280;5526;42.070;24.752;2024-02-28T06:20:52;99650.59;;;8.49;100.00
10948;BME280;5526;42.070;24.752;2024-02-28T06:23:20;99649.63;;;8.62;100.00
10948;BME280;5526;42.070;24.752;2024-02-28T06:25:49;99654.44;;;8.76;100.00
10948;BME280;5526;42.070;24.752;2024-02-28T06:28:16;99641.06;;;8.66;100.00
10948;BME280;5526;42.070;24.752;2024-02-28T06:30:44;99662.34;;;9.00;100.00
10948;BME280;5526;42.070;24.752;2024-02-28T06:33:11;99671.38;;;9.04;100.00
10948;BME280;5526;42.070;24.752;2024-02-28T06:35:39;99668.41;;;9.12;100.00
10948;BME280;5526;42.070;24.752;2024-02-28T06:38:06;99669.78;;;9.14;100.00
10948;BME280;5526;42.070;24.752;2024-02-28T06:40:33;99664.41;;;9.09;100.00
10948;BME280;5526;42.070;24.752;2024-02-28T06:43:01;99666.59;;;9.24;100.00
10948;BME280;5526;42.070;24.752;2024-02-28T06:45:28;99663.75;;;9.25;100.00
10948;BME280;5526;42.070;24.752;2024-02-28T06:47:55;99675.38;;;9.29;100.00
10948;BME280;5526;42.070;24.752;2024-02-28T06:50:22;99668.78;;;9.27;100.00
10948;BME280;5526;42.070;24.752;2024-02-28T06:52:49;99672.19;;;9.16;100.00
10948;BME280;5526;42.070;24.752;2024-02-28T06:55:19;99671.50;;;9.20;100.00
10948;BME280;5526;42.070;24.752;2024-02-28T06:57:46;99680.88;;;9.28;100.00
10948;BME280;5526;42.070;24.752;2024-02-28T07:00:15;99689.88;;;9.32;100.00
10948;BME280;5526;42.070;24.752;2024-02-28T07:02:44;99682.47;;;9.40;100.00
10948;BME280;5526;42.070;24.752;2024-02-28T07:05:12;99678.25;;;9.51;100.00
10948;BME280;5526;42.070;24.752;2024-02-28T07:07:39;99690.78;;;9.49;100.00
10948;BME280;5526;42.070;24.752;2024-02-28T07:10:07;99696.50;;;9.57;100.00
10948;BME280;5526;42.070;24.752;2024-02-28T07:12:34;99698.59;;;9.55;100.00
10948;BME280;5526;42.070;24.752;2024-02-28T07:15:01;99700.75;;;9.47;100.00
10948;BME280;5526;42.070;24.752;2024-02-28T07:17:29;99705.31;;;9.51;100.00
10948;BME280;5526;42.070;24.752;2024-02-28T07:19:56;99702.78;;;9.68;100.00
10948;BME280;5526;42.070;24.752;2024-02-28T07:22:23;99697.66;;;9.61;100.00
10948;BME280;5526;42.070;24.752;2024-02-28T07:24:50;99699.34;;;9.79;100.00
10948;BME280;5526;42.070;24.752;2024-02-28T07:27:17;99707.47;;;9.66;100.00
10948;BME280;5526;42.070;24.752;2024-02-28T07:29:44;99702.31;;;9.71;100.00
10948;BME280;5526;42.070;24.752;2024-02-28T07:32:11;99709.25;;;10.00;100.00
10948;BME280;5526;42.070;24.752;2024-02-28T07:34:40;99705.38;;;10.14;100.00
10948;BME280;5526;42.070;24.752;2024-02-28T07:37:07;99700.69;;;10.16;100.00
10948;BME280;5526;42.070;24.752;2024-02-28T07:39:34;99697.47;;;10.14;100.00
10948;BME280;5526;42.070;24.752;2024-02-28T07:42:02;99698.97;;;10.10;100.00
10948;BME280;5526;42.070;24.752;2024-02-28T07:44:29;99700.78;;;10.21;100.00
10948;BME280;5526;42.070;24.752;2024-02-28T07:46:57;99679.66;;;10.44;100.00
10948;BME280;5526;42.070;24.752;2024-02-28T07:49:24;99693.03;;;11.03;100.00
10948;BME280;5526;42.070;24.752;2024-02-28T07:51:53;99693.16;;;11.08;100.00
10948;BME280;5526;42.070;24.752;2024-02-28T07:54:20;99698.56;;;11.18;100.00
10948;BME280;5526;42.070;24.752;2024-02-28T07:56:48;99692.78;;;11.54;100.00
10948;BME280;5526;42.070;24.752;2024-02-28T07:59:15;99680.63;;;11.70;100.00
10948;BME280;5526;42.070;24.752;2024-02-28T08:01:42;99681.72;;;11.90;100.00
10948;BME280;5526;42.070;24.752;2024-02-28T08:04:10;99677.94;;;11.48;100.00
10948;BME280;5526;42.070;24.752;2024-02-28T08:06:39;99683.63;;;11.40;100.00
10948;BME280;5526;42.070;24.752;2024-02-28T08:09:08;99681.28;;;11.60;100.00
10948;BME280;5526;42.070;24.752;2024-02-28T08:11:34;99687.03;;;11.95;100.00
10948;BME280;5526;42.070;24.752;2024-02-28T08:14:02;99682.25;;;12.14;100.00
10948;BME280;5526;42.070;24.752;2024-02-28T08:16:29;99684.97;;;11.97;100.00
10948;BME280;5526;42.070;24.752;2024-02-28T08:18:56;99681.34;;;11.65;100.00
10948;BME280;5526;42.070;24.752;2024-02-28T08:21:24;99678.19;;;11.63;100.00
10948;BME280;5526;42.070;24.752;2024-02-28T08:23:52;99673.97;;;12.05;100.00
10948;BME280;5526;42.070;24.752;2024-02-28T08:26:20;99677.63;;;12.26;100.00
10948;BME280;5526;42.070;24.752;2024-02-28T08:28:47;99673.00;;;12.38;100.00
10948;BME280;5526;42.070;24.752;2024-02-28T08:31:14;99678.41;;;12.48;99.65
10948;BME280;5526;42.070;24.752;2024-02-28T08:33:41;99679.69;;;12.72;97.96
10948;BME280;5526;42.070;24.752;2024-02-28T08:36:08;99677.16;;;12.82;97.19
10948;BME280;5526;42.070;24.752;2024-02-28T08:38:35;99673.63;;;12.98;96.46
10948;BME280;5526;42.070;24.752;2024-02-28T08:41:04;99682.44;;;13.14;95.44
10948;BME280;5526;42.070;24.752;2024-02-28T08:43:33;99681.34;;;13.05;96.10
10948;BME280;5526;42.070;24.752;2024-02-28T08:46:04;99686.84;;;13.35;94.87
10948;BME280;5526;42.070;24.752;2024-02-28T08:48:31;99685.56;;;13.42;93.71
10948;BME280;5526;42.070;24.752;2024-02-28T08:50:58;99687.22;;;13.53;93.29
10948;BME280;5526;42.070;24.752;2024-02-28T08:53:25;99686.94;;;13.50;92.76
10948;BME280;5526;42.070;24.752;2024-02-28T08:55:52;99679.19;;;13.33;92.38
10948;BME280;5526;42.070;24.752;2024-02-28T08:58:19;99691.47;;;13.54;92.01
10948;BME280;5526;42.070;24.752;2024-02-28T09:00:48;99687.75;;;13.50;91.41
10948;BME280;5526;42.070;24.752;2024-02-28T09:03:15;99690.25;;;13.72;90.85
10948;BME280;5526;42.070;24.752;2024-02-28T09:05:42;99686.38;;;13.89;89.91
10948;BME280;5526;42.070;24.752;2024-02-28T09:08:09;99684.41;;;14.21;89.21
10948;BME280;5526;42.070;24.752;2024-02-28T09:10:36;99682.69;;;13.95;88.97
10948;BME280;5526;42.070;24.752;2024-02-28T09:13:03;99680.91;;;14.11;88.65
10948;BME280;5526;42.070;24.752;2024-02-28T09:15:32;99680.78;;;14.42;87.05
10948;BME280;5526;42.070;24.752;2024-02-28T09:18:01;99671.00;;;14.63;84.95
10948;BME280;5526;42.070;24.752;2024-02-28T09:20:28;99675.22;;;14.54;85.28
10948;BME280;5526;42.070;24.752;2024-02-28T09:22:55;99678.44;;;14.91;83.94
10948;BME280;5526;42.070;24.752;2024-02-28T09:25:22;99676.00;;;14.44;85.36
10948;BME280;5526;42.070;24.752;2024-02-28T09:27:49;99665.97;;;14.66;84.71
10948;BME280;5526;42.070;24.752;2024-02-28T09:30:16;99663.59;;;14.75;84.64
10948;BME280;5526;42.070;24.752;2024-02-28T09:32:44;99671.03;;;14.93;84.29
10948;BME280;5526;42.070;24.752;2024-02-28T09:35:14;99672.34;;;15.25;83.07
10948;BME280;5526;42.070;24.752;2024-02-28T09:37:41;99667.34;;;14.99;83.44
10948;BME280;5526;42.070;24.752;2024-02-28T09:40:09;99663.59;;;14.95;83.58
10948;BME280;5526;42.070;24.752;2024-02-28T09:42:36;99664.41;;;14.95;83.66
10948;BME280;5526;42.070;24.752;2024-02-28T09:45:04;99654.84;;;15.19;81.03
10948;BME280;5526;42.070;24.752;2024-02-28T09:47:34;99655.63;;;15.25;81.27
10948;BME280;5526;42.070;24.752;2024-02-28T09:50:01;99649.31;;;14.96;81.82
10948;BME280;5526;42.070;24.752;2024-02-28T09:52:30;99642.38;;;15.10;81.51
10948;BME280;5526;42.070;24.752;2024-02-28T09:54:57;99642.94;;;15.42;80.32
10948;BME280;5526;42.070;24.752;2024-02-28T09:57:25;99637.63;;;15.42;80.61
10948;BME280;5526;42.070;24.752;2024-02-28T09:59:55;99636.81;;;15.16;80.79
10948;BME280;5526;42.070;24.752;2024-02-28T10:02:23;99636.81;;;15.16;80.74
10948;BME280;5526;42.070;24.752;2024-02-28T10:04:52;99633.41;;;15.11;80.85
10948;BME280;5526;42.070;24.752;2024-02-28T10:07:19;99628.31;;;15.39;80.84
10948;BME280;5526;42.070;24.752;2024-02-28T10:09:48;99623.97;;;15.73;79.38
10948;BME280;5526;42.070;24.752;2024-02-28T10:12:15;99629.50;;;15.87;78.99
10948;BME280;5526;42.070;24.752;2024-02-28T10:14:44;99626.72;;;16.12;77.49
10948;BME280;5526;42.070;24.752;2024-02-28T10:17:11;99620.34;;;16.08;77.20
10948;BME280;5526;42.070;24.752;2024-02-28T10:19:38;99619.13;;;15.90;78.09
10948;BME280;5526;42.070;24.752;2024-02-28T10:22:06;99623.88;;;15.93;77.10
10948;BME280;5526;42.070;24.752;2024-02-28T10:24:33;99616.94;;;16.07;76.87
10948;BME280;5526;42.070;24.752;2024-02-28T10:27:02;99614.41;;;15.77;78.22
10948;BME280;5526;42.070;24.752;2024-02-28T10:29:29;99616.59;;;15.55;79.15
10948;BME280;5526;42.070;24.752;2024-02-28T10:31:58;99602.09;;;15.23;80.15
10948;BME280;5526;42.070;24.752;2024-02-28T10:34:25;99604.75;;;15.38;79.92
10948;BME280;5526;42.070;24.752;2024-02-28T10:36:52;99604.19;;;15.31;79.82
10948;BME280;5526;42.070;24.752;2024-02-28T10:39:21;99600.47;;;15.37;80.14
10948;BME280;5526;42.070;24.752;2024-02-28T10:41:50;99588.28;;;15.21;80.39
10948;BME280;5526;42.070;24.752;2024-02-28T10:44:20;99576.13;;;15.05;81.22
10948;BME280;5526;42.070;24.752;2024-02-28T10:46:49;99579.84;;;15.09;81.91
10948;BME280;5526;42.070;24.752;2024-02-28T10:49:16;99578.47;;;15.26;80.77
10948;BME280;5526;42.070;24.752;2024-02-28T10:51:46;99572.63;;;15.29;81.06
10948;BME280;5526;42.070;24.752;2024-02-28T10:54:15;99571.56;;;15.35;80.61
10948;BME280;5526;42.070;24.752;2024-02-28T10:56:43;99567.59;;;15.38;80.68
10948;BME280;5526;42.070;24.752;2024-02-28T10:59:11;99567.88;;;15.36;80.54
10948;BME280;5526;42.070;24.752;2024-02-28T11:01:43;99559.09;;;15.31;80.37
10948;BME280;5526;42.070;24.752;2024-02-28T11:04:11;99562.56;;;15.36;80.10
10948;BME280;5526;42.070;24.752;2024-02-28T11:06:48;99560.69;;;15.22;79.98
10948;BME280;5526;42.070;24.752;2024-02-28T11:09:20;99556.75;;;15.24;80.67
10948;BME280;5526;42.070;24.752;2024-02-28T11:11:51;99550.13;;;15.17;81.46
10948;BME280;5526;42.070;24.752;2024-02-28T11:14:19;99551.97;;;15.11;81.91
10948;BME280;5526;42.070;24.752;2024-02-28T11:17:00;99542.94;;;15.32;80.10
10948;BME280;5526;42.070;24.752;2024-02-28T11:19:28;99527.28;;;15.31;80.76
10948;BME280;5526;42.070;24.752;2024-02-28T11:21:57;99538.56;;;15.66;79.59
10948;BME280;5526;42.070;24.752;2024-02-28T11:24:24;99536.94;;;15.75;78.87
10948;BME280;5526;42.070;24.752;2024-02-28T11:26:56;99528.25;;;15.60;79.71
10948;BME280;5526;42.070;24.752;2024-02-28T11:29:24;99523.69;;;15.65;79.10
10948;BME280;5526;42.070;24.752;2024-02-28T11:31:53;99519.09;;;15.86;78.24
10948;BME280;5526;42.070;24.752;2024-02-28T11:34:20;99523.47;;;15.62;79.44
10948;BME280;5526;42.070;24.752;2024-02-28T11:36:48;99519.00;;;15.52;79.73
10948;BME280;5526;42.070;24.752;2024-02-28T11:39:16;99501.16;;;15.63;78.75
10948;BME280;5526;42.070;24.752;2024-02-28T11:41:43;99515.25;;;15.63;78.87
10948;BME280;5526;42.070;24.752;2024-02-28T11:44:12;99506.03;;;15.89;78.31
10948;BME280;5526;42.070;24.752;2024-02-28T11:46:43;99504.78;;;16.82;72.75
10948;BME280;5526;42.070;24.752;2024-02-28T11:49:12;99503.34;;;16.66;73.23
10948;BME280;5526;42.070;24.752;2024-02-28T11:51:40;99501.63;;;16.52;73.96
10948;BME280;5526;42.070;24.752;2024-02-28T11:54:08;99502.31;;;16.62;74.72
10948;BME280;5526;42.070;24.752;2024-02-28T11:56:36;99496.91;;;16.72;73.50
10948;BME280;5526;42.070;24.752;2024-02-28T11:59:03;99500.88;;;16.75;73.38
10948;BME280;5526;42.070;24.752;2024-02-28T12:01:35;99495.84;;;16.73;72.39
10948;BME280;5526;42.070;24.752;2024-02-28T12:04:03;99493.59;;;16.85;72.90
10948;BME280;5526;42.070;24.752;2024-02-28T12:06:33;99486.13;;;17.11;72.16
10948;BME280;5526;42.070;24.752;2024-02-28T12:09:02;99496.66;;;17.21;71.56
10948;BME280;5526;42.070;24.752;2024-02-28T12:11:30;99480.19;;;16.95;71.49
10948;BME280;5526;42.070;24.752;2024-02-28T12:13:57;99481.19;;;18.02;65.61
10948;BME280;5526;42.070;24.752;2024-02-28T12:16:25;99483.94;;;17.42;68.22
10948;BME280;5526;42.070;24.752;2024-02-28T12:18:53;99474.91;;;17.38;69.31
10948;BME280;5526;42.070;24.752;2024-02-28T12:21:20;99460.09;;;16.84;71.01
10948;BME280;5526;42.070;24.752;2024-02-28T12:23:49;99453.66;;;16.90;70.25
10948;BME280;5526;42.070;24.752;2024-02-28T12:26:17;99466.09;;;17.19;69.33
10948;BME280;5526;42.070;24.752;2024-02-28T12:28:45;99468.13;;;17.27;69.56
10948;BME280;5526;42.070;24.752;2024-02-28T12:31:12;99467.63;;;17.25;68.94
10948;BME280;5526;42.070;24.752;2024-02-28T12:33:39;99467.47;;;17.35;68.87
10948;BME280;5526;42.070;24.752;2024-02-28T12:36:08;99464.31;;;18.57;63.85
10948;BME280;5526;42.070;24.752;2024-02-28T12:38:35;99455.16;;;17.99;66.12
10948;BME280;5526;42.070;24.752;2024-02-28T12:41:03;99449.38;;;17.92;66.67
10948;BME280;5526;42.070;24.752;2024-02-28T12:43:31;99452.88;;;17.74;66.85
10948;BME280;5526;42.070;24.752;2024-02-28T12:45:59;99447.03;;;17.72;67.03
10948;BME280;5526;42.070;24.752;2024-02-28T12:48:26;99451.69;;;17.80;66.80
10948;BME280;5526;42.070;24.752;2024-02-28T12:50:53;99445.03;;;17.83;66.85
10948;BME280;5526;42.070;24.752;2024-02-28T12:53:20;99440.75;;;17.82;66.73
10948;BME280;5526;42.070;24.752;2024-02-28T12:55:47;99437.47;;;17.71;67.39
10948;BME280;5526;42.070;24.752;2024-02-28T12:58:16;99438.19;;;17.77;66.94
10948;BME280;5526;42.070;24.752;2024-02-28T13:00:43;99431.41;;;17.84;66.49
10948;BME280;5526;42.070;24.752;2024-02-28T13:03:10;99430.41;;;17.80;66.58